createdAt,value
2022-11-24T00:00:21.118Z,45.47
2022-11-24T00:01:27.242Z,44.08
2022-11-24T00:02:30.222Z,47.35
2022-11-24T00:03:34.396Z,44.03
2022-11-24T00:04:37.130Z,46.95
2022-11-24T00:05:40.977Z,53.55
2022-11-24T00:06:44.745Z,46.53
2022-11-24T00:07:48.976Z,41.83
2022-11-24T00:08:53.006Z,44.20
2022-11-24T00:09:55.667Z,44.55
2022-11-24T00:11:04.666Z,49.88
2022-11-24T00:12:07.450Z,51.70
2022-11-24T00:13:11.178Z,47.15
2022-11-24T00:14:13.976Z,47.80
2022-11-24T00:15:17.847Z,51.88
2022-11-24T00:16:22.320Z,46.50
2022-11-24T00:17:26.085Z,47.38
2022-11-24T00:18:28.828Z,41.65
2022-11-24T00:19:32.713Z,42.13
2022-11-24T00:20:35.477Z,39.53
2022-11-24T00:21:39.931Z,40.72
2022-11-24T00:22:42.696Z,39.85
2022-11-24T00:23:48.496Z,40.45
2022-11-24T00:24:51.208Z,39.08
2022-11-24T00:25:55.078Z,37.10
2022-11-24T00:26:57.756Z,32.35
2022-11-24T00:28:01.514Z,37.60
2022-11-24T00:29:07.972Z,33.47
2022-11-24T00:30:11.580Z,33.33
2022-11-24T00:31:20.122Z,29.60
2022-11-24T00:32:22.886Z,31.73
2022-11-24T00:33:26.637Z,30.95
2022-11-24T00:34:30.572Z,30.77
2022-11-24T00:35:33.755Z,34.40
2022-11-24T00:36:37.980Z,36.90
2022-11-24T00:37:40.769Z,32.78
2022-11-24T00:38:44.677Z,31.35
2022-11-24T00:39:48.839Z,31.27
2022-11-24T00:40:52.883Z,29.83
2022-11-24T00:41:55.585Z,34.67
2022-11-24T00:43:00.720Z,29.20
2022-11-24T00:44:03.947Z,34.15
2022-11-24T00:45:13.743Z,29.58
2022-11-24T00:46:17.035Z,32.85
2022-11-24T00:47:20.995Z,34.20
2022-11-24T00:48:23.790Z,29.90
2022-11-24T00:49:27.664Z,33.05
2022-11-24T00:50:30.512Z,32.25
2022-11-24T00:51:34.396Z,33.67
2022-11-24T00:52:37.019Z,35.67
2022-11-24T00:53:41.076Z,36.70
2022-11-24T00:54:43.799Z,37.42
2022-11-24T00:55:51.858Z,36.78
2022-11-24T00:56:54.646Z,46.70
2022-11-24T00:57:58.457Z,44.63
2022-11-24T00:59:02.218Z,45.17
2022-11-24T01:00:06.417Z,43.20
2022-11-24T01:01:12.922Z,38.58
2022-11-24T01:02:16.159Z,41.60
2022-11-24T01:03:21.054Z,42.15
2022-11-24T01:04:24.900Z,39.80
2022-11-24T01:05:27.607Z,44.50
2022-11-24T01:06:32.769Z,40.00
2022-11-24T01:07:36.094Z,35.83
2022-11-24T01:08:40.655Z,39.70
2022-11-24T01:09:45.779Z,38.47
2022-11-24T01:10:49.499Z,38.10
2022-11-24T01:12:02.313Z,35.40
2022-11-24T01:13:06.307Z,36.60
2022-11-24T01:14:09.058Z,36.60
2022-11-24T01:15:12.998Z,36.10
2022-11-24T01:16:17.916Z,34.92
2022-11-24T01:17:21.780Z,35.10
2022-11-24T01:18:24.451Z,35.35
2022-11-24T01:19:28.373Z,37.55
2022-11-24T01:20:31.553Z,41.90
2022-11-24T01:21:35.408Z,43.55
2022-11-24T01:22:39.258Z,38.15
2022-11-24T01:23:42.985Z,46.15
2022-11-24T01:24:46.117Z,40.13
2022-11-24T01:25:49.870Z,38.95
2022-11-24T01:26:53.975Z,39.05
2022-11-24T01:27:57.768Z,37.83
2022-11-24T01:29:00.579Z,37.25
2022-11-24T01:30:04.582Z,39.97
2022-11-24T01:31:08.263Z,37.97
2022-11-24T01:32:12.038Z,34.55
2022-11-24T01:33:14.767Z,41.08
2022-11-24T01:34:18.626Z,36.50
2022-11-24T01:35:21.305Z,35.50
2022-11-24T01:36:25.137Z,33.90
2022-11-24T01:37:27.834Z,36.20
2022-11-24T01:38:31.649Z,36.22
2022-11-24T01:39:34.414Z,34.10
2022-11-24T01:40:38.157Z,35.60
2022-11-24T01:41:40.954Z,39.97
2022-11-24T01:42:50.708Z,37.30
2022-11-24T01:43:54.738Z,35.35
2022-11-24T01:45:30.085Z,34.47
2022-11-24T01:46:36.986Z,36.80
2022-11-24T01:47:41.192Z,36.38
2022-11-24T01:48:48.405Z,35.38
2022-11-24T01:49:53.538Z,31.77
2022-11-24T01:51:01.875Z,38.20
2022-11-24T01:52:07.935Z,36.97
2022-11-24T01:53:12.415Z,34.97
2022-11-24T01:54:16.835Z,34.45
2022-11-24T01:55:30.891Z,31.77
2022-11-24T01:56:36.093Z,32.63
2022-11-24T01:57:44.003Z,34.65
2022-11-24T01:58:49.211Z,33.78
2022-11-24T01:59:54.382Z,30.83
2022-11-24T02:01:00.708Z,35.50
2022-11-24T02:02:04.644Z,37.63
2022-11-24T02:03:07.807Z,34.40
2022-11-24T02:04:14.716Z,30.92
2022-11-24T02:05:20.482Z,31.42
2022-11-24T02:06:25.547Z,33.70
2022-11-24T02:07:28.335Z,32.20
2022-11-24T02:08:36.535Z,36.10
2022-11-24T02:09:44.197Z,35.63
2022-11-24T02:10:48.026Z,32.20
2022-11-24T02:11:51.055Z,30.35
2022-11-24T02:12:56.775Z,35.50
2022-11-24T02:14:01.222Z,34.95
2022-11-24T02:15:05.539Z,34.55
2022-11-24T02:16:09.571Z,40.20
2022-11-24T02:17:13.545Z,30.38
2022-11-24T02:18:16.236Z,34.55
2022-11-24T02:19:30.418Z,36.45
2022-11-24T02:20:34.355Z,37.15
2022-11-24T02:21:38.154Z,39.08
2022-11-24T02:22:46.716Z,37.95
2022-11-24T02:23:57.216Z,38.75
2022-11-24T02:25:05.425Z,36.95
2022-11-24T02:26:13.128Z,33.85
2022-11-24T02:27:17.264Z,36.25
2022-11-24T02:28:22.863Z,30.88
2022-11-24T02:29:25.546Z,32.50
2022-11-24T02:30:29.580Z,33.95
2022-11-24T02:31:32.594Z,36.10
2022-11-24T02:32:36.727Z,35.45
2022-11-24T02:33:39.680Z,34.88
2022-11-24T02:34:43.342Z,34.65
2022-11-24T02:35:46.064Z,31.63
2022-11-24T02:36:49.827Z,34.22
2022-11-24T02:37:52.431Z,36.72
2022-11-24T02:38:56.186Z,35.47
2022-11-24T02:39:58.856Z,32.63
2022-11-24T02:41:05.573Z,37.25
2022-11-24T02:42:10.759Z,34.40
2022-11-24T02:43:17.684Z,32.50
2022-11-24T02:44:22.982Z,34.17
2022-11-24T02:45:27.181Z,31.75
2022-11-24T02:46:31.026Z,33.40
2022-11-24T02:47:33.916Z,37.92
2022-11-24T02:48:37.746Z,32.70
2022-11-24T02:49:40.589Z,35.70
2022-11-24T02:50:44.704Z,32.45
2022-11-24T02:51:47.440Z,35.85
2022-11-24T02:52:51.187Z,34.30
2022-11-24T02:53:53.864Z,33.45
2022-11-24T02:54:57.590Z,32.03
2022-11-24T02:56:00.300Z,31.80
2022-11-24T02:57:04.026Z,30.85
2022-11-24T02:58:06.758Z,33.00
2022-11-24T02:59:11.947Z,32.58
2022-11-24T03:00:15.687Z,33.30
2022-11-24T03:01:19.494Z,36.20
2022-11-24T03:02:22.338Z,36.60
2022-11-24T03:03:26.345Z,31.92
2022-11-24T03:04:29.157Z,38.35
2022-11-24T03:05:32.964Z,37.70
2022-11-24T03:06:35.754Z,34.90
2022-11-24T03:07:39.732Z,34.78
2022-11-24T03:08:42.592Z,35.67
2022-11-24T03:09:46.336Z,38.72
2022-11-24T03:10:49.420Z,33.33
2022-11-24T03:11:53.209Z,32.83
2022-11-24T03:12:56.316Z,33.10
2022-11-24T03:14:00.095Z,37.10
2022-11-24T03:15:04.856Z,32.92
2022-11-24T03:16:11.284Z,37.80
2022-11-24T03:17:14.026Z,34.88
2022-11-24T03:18:17.765Z,33.28
2022-11-24T03:19:20.409Z,34.70
2022-11-24T03:20:24.458Z,39.08
2022-11-24T03:21:27.237Z,37.22
2022-11-24T03:22:30.926Z,35.15
2022-11-24T03:23:33.745Z,37.53
2022-11-24T03:24:38.525Z,33.70
2022-11-24T03:25:41.244Z,37.33
2022-11-24T03:26:45.055Z,31.08
2022-11-24T03:27:47.806Z,30.25
2022-11-24T03:28:51.639Z,34.40
2022-11-24T03:29:54.376Z,36.28
2022-11-24T03:30:59.572Z,34.58
2022-11-24T03:32:02.966Z,36.83
2022-11-24T03:33:07.440Z,34.72
2022-11-24T03:34:10.179Z,37.42
2022-11-24T03:35:14.025Z,33.40
2022-11-24T03:36:17.236Z,42.53
2022-11-24T03:37:21.184Z,37.85
2022-11-24T03:38:23.873Z,40.10
2022-11-24T03:39:27.599Z,37.33
2022-11-24T03:40:30.278Z,38.53
2022-11-24T03:41:34.137Z,37.72
2022-11-24T03:42:36.832Z,40.25
2022-11-24T03:43:43.732Z,41.75
2022-11-24T03:44:48.220Z,46.20
2022-11-24T03:45:52.121Z,37.53
2022-11-24T03:46:56.266Z,35.25
2022-11-24T03:48:00.085Z,35.83
2022-11-24T03:49:02.999Z,40.28
2022-11-24T03:50:07.865Z,39.25
2022-11-24T03:51:11.299Z,37.72
2022-11-24T03:52:15.539Z,44.40
2022-11-24T03:53:18.263Z,35.17
2022-11-24T03:54:22.237Z,33.85
2022-11-24T03:55:25.026Z,40.55
2022-11-24T03:56:29.225Z,40.85
2022-11-24T03:57:32.984Z,36.28
2022-11-24T03:58:35.746Z,42.40
2022-11-24T03:59:39.552Z,45.25
2022-11-24T04:00:42.298Z,44.70
2022-11-24T04:01:46.129Z,38.45
2022-11-24T04:02:50.297Z,47.15
2022-11-24T04:03:54.151Z,41.03
2022-11-24T04:04:56.844Z,39.53
2022-11-24T04:06:00.600Z,39.05
2022-11-24T04:07:03.425Z,43.47
2022-11-24T04:08:07.757Z,40.47
2022-11-24T04:09:11.007Z,40.25
2022-11-24T04:10:15.259Z,41.35
2022-11-24T04:11:32.767Z,40.40
2022-11-24T04:12:44.280Z,35.20
2022-11-24T04:13:48.216Z,35.97
2022-11-24T04:14:52.182Z,39.67
2022-11-24T04:15:55.100Z,39.47
2022-11-24T04:16:58.896Z,39.80
2022-11-24T04:18:03.193Z,40.40
2022-11-24T04:19:07.649Z,44.13
2022-11-24T04:20:11.885Z,40.58
2022-11-24T04:21:15.844Z,38.35
2022-11-24T04:22:18.675Z,37.25
2022-11-24T04:23:22.460Z,41.85
2022-11-24T04:24:25.226Z,37.35
2022-11-24T04:25:28.985Z,42.90
2022-11-24T04:26:32.186Z,49.13
2022-11-24T04:27:36.907Z,38.83
2022-11-24T04:28:39.593Z,38.15
2022-11-24T04:29:43.457Z,45.67
2022-11-24T04:30:46.305Z,39.78
2022-11-24T04:31:50.165Z,48.55
2022-11-24T04:32:52.975Z,38.65
2022-11-24T04:33:58.123Z,42.75
2022-11-24T04:35:00.824Z,48.03
2022-11-24T04:36:04.787Z,46.65
2022-11-24T04:37:07.583Z,41.10
2022-11-24T04:38:11.355Z,42.75
2022-11-24T04:39:24.541Z,45.60
2022-11-24T04:40:30.396Z,42.50
2022-11-24T04:41:33.247Z,40.92
2022-11-24T04:42:37.063Z,38.25
2022-11-24T04:43:40.913Z,43.85
2022-11-24T04:44:44.747Z,46.13
2022-11-24T04:45:47.489Z,42.53
2022-11-24T04:46:51.341Z,51.30
2022-11-24T04:47:54.158Z,50.53
2022-11-24T04:48:59.381Z,51.33
2022-11-24T04:50:02.238Z,56.78
2022-11-24T04:51:06.607Z,65.82
2022-11-24T04:52:09.261Z,65.82
2022-11-24T04:53:13.810Z,60.58
2022-11-24T04:54:16.796Z,79.30
2022-11-24T04:55:20.519Z,76.05
2022-11-24T04:56:23.300Z,75.63
2022-11-24T04:57:28.101Z,62.38
2022-11-24T04:58:30.787Z,87.03
2022-11-24T04:59:34.839Z,79.22
2022-11-24T05:00:38.609Z,79.00
2022-11-24T05:01:42.844Z,78.32
2022-11-24T05:02:45.566Z,78.22
2022-11-24T05:03:49.341Z,86.85
2022-11-24T05:04:53.539Z,84.15
2022-11-24T05:06:00.171Z,77.55
2022-11-24T05:07:02.923Z,83.03
2022-11-24T05:08:06.943Z,89.30
2022-11-24T05:09:09.964Z,90.68
2022-11-24T05:10:30.906Z,77.60
2022-11-24T05:11:35.356Z,67.25
2022-11-24T05:12:39.659Z,70.97
2022-11-24T05:13:43.607Z,82.82
2022-11-24T05:14:46.234Z,91.85
2022-11-24T05:15:50.049Z,92.70
2022-11-24T05:16:52.848Z,83.80
2022-11-24T05:17:57.228Z,87.80
2022-11-24T05:18:59.869Z,89.97
2022-11-24T05:20:05.638Z,100.00
2022-11-24T05:21:09.375Z,87.50
2022-11-24T05:22:12.076Z,86.22
2022-11-24T05:23:15.970Z,87.68
2022-11-24T05:24:18.706Z,85.28
2022-11-24T05:25:22.458Z,72.63
2022-11-24T05:26:25.329Z,80.28
2022-11-24T05:27:29.083Z,71.78
2022-11-24T05:28:32.072Z,83.57
2022-11-24T05:29:35.884Z,71.13
2022-11-24T05:30:39.019Z,77.18
2022-11-24T05:31:42.764Z,77.43
2022-11-24T05:32:45.477Z,83.63
2022-11-24T05:33:49.295Z,79.63
2022-11-24T05:34:53.342Z,88.38
2022-11-24T05:36:01.871Z,83.00
2022-11-24T05:37:04.615Z,111.63
2022-11-24T05:38:08.355Z,96.22
2022-11-24T05:39:10.994Z,84.35
2022-11-24T05:40:15.048Z,91.18
2022-11-24T05:41:17.807Z,95.13
2022-11-24T05:42:42.078Z,77.50
2022-11-24T05:43:50.196Z,93.03
2022-11-24T05:44:53.301Z,84.45
2022-11-24T05:45:59.646Z,111.60
2022-11-24T05:47:02.442Z,115.95
2022-11-24T05:48:07.716Z,112.65
2022-11-24T05:49:10.546Z,98.00
2022-11-24T05:50:15.366Z,100.70
2022-11-24T05:51:19.471Z,88.88
2022-11-24T05:52:23.508Z,93.50
2022-11-24T05:53:27.218Z,89.28
2022-11-24T05:54:30.946Z,90.18
2022-11-24T05:55:34.978Z,82.95
2022-11-24T05:56:37.632Z,86.32
2022-11-24T05:57:41.376Z,87.05
2022-11-24T05:58:44.036Z,84.22
2022-11-24T05:59:47.798Z,93.68
2022-11-24T06:00:51.658Z,94.45
2022-11-24T06:01:54.415Z,90.35
2022-11-24T06:02:58.613Z,82.38
2022-11-24T06:04:01.393Z,88.78
2022-11-24T06:05:05.536Z,90.55
2022-11-24T06:06:09.340Z,90.00
2022-11-24T06:07:13.866Z,123.25
2022-11-24T06:08:17.696Z,93.32
2022-11-24T06:09:20.547Z,102.30
2022-11-24T06:10:25.216Z,82.55
2022-11-24T06:11:27.916Z,99.03
2022-11-24T06:12:31.626Z,107.00
2022-11-24T06:13:34.424Z,103.45
2022-11-24T06:14:38.727Z,95.10
2022-11-24T06:15:42.516Z,79.55
2022-11-24T06:16:45.228Z,100.00
2022-11-24T06:17:55.626Z,87.93
2022-11-24T06:18:58.287Z,82.45
2022-11-24T06:20:01.988Z,85.43
2022-11-24T06:21:12.311Z,88.55
2022-11-24T06:22:17.866Z,92.95
2022-11-24T06:23:20.485Z,70.18
2022-11-24T06:24:24.369Z,86.70
2022-11-24T06:25:28.150Z,86.82
2022-11-24T06:26:30.834Z,76.60
2022-11-24T06:27:34.798Z,74.38
2022-11-24T06:28:37.506Z,78.72
2022-11-24T06:29:41.553Z,77.43
2022-11-24T06:30:45.443Z,91.38
2022-11-24T06:31:48.183Z,97.60
2022-11-24T06:32:56.312Z,77.47
2022-11-24T06:33:59.655Z,73.45
2022-11-24T06:35:03.543Z,79.10
2022-11-24T06:36:08.583Z,79.63
2022-11-24T06:37:12.339Z,70.68
2022-11-24T06:38:22.936Z,75.75
2022-11-24T06:39:28.117Z,76.57
2022-11-24T06:40:30.888Z,68.07
2022-11-24T06:41:34.935Z,66.65
2022-11-24T06:42:37.866Z,78.38
2022-11-24T06:43:41.786Z,77.72
2022-11-24T06:44:45.470Z,75.72
2022-11-24T06:45:51.948Z,74.75
2022-11-24T06:46:55.715Z,66.40
2022-11-24T06:47:58.777Z,62.45
2022-11-24T06:49:02.670Z,69.28
2022-11-24T06:50:07.315Z,61.42
2022-11-24T06:51:13.018Z,68.00
2022-11-24T06:52:16.743Z,77.25
2022-11-24T06:53:20.775Z,73.07
2022-11-24T06:54:24.666Z,77.75
2022-11-24T06:55:27.705Z,67.65
2022-11-24T06:56:31.439Z,60.65
2022-11-24T06:57:35.352Z,63.10
2022-11-24T06:58:43.992Z,56.47
2022-11-24T06:59:46.731Z,73.72
2022-11-24T07:00:50.527Z,55.50
2022-11-24T07:01:54.437Z,57.80
2022-11-24T07:02:57.555Z,70.95
2022-11-24T07:04:01.347Z,71.93
2022-11-24T07:05:04.226Z,70.32
2022-11-24T07:06:08.110Z,59.25
2022-11-24T07:07:12.003Z,51.78
2022-11-24T07:08:17.824Z,54.60
2022-11-24T07:09:23.349Z,56.42
2022-11-24T07:10:26.060Z,57.28
2022-11-24T07:11:29.809Z,58.70
2022-11-24T07:12:34.925Z,59.63
2022-11-24T07:13:38.688Z,57.72
2022-11-24T07:14:42.405Z,51.15
2022-11-24T07:15:45.096Z,53.80
2022-11-24T07:16:48.823Z,64.72
2022-11-24T07:17:51.538Z,54.45
2022-11-24T07:18:55.943Z,56.20
2022-11-24T07:19:58.610Z,63.58
2022-11-24T07:21:05.394Z,62.30
2022-11-24T07:22:09.106Z,63.67
2022-11-24T07:23:11.828Z,64.75
2022-11-24T07:24:15.558Z,62.97
2022-11-24T07:25:19.797Z,57.42
2022-11-24T07:26:24.546Z,48.92
2022-11-24T07:27:27.568Z,62.70
2022-11-24T07:28:31.435Z,60.83
2022-11-24T07:29:35.295Z,48.97
2022-11-24T07:30:38.027Z,55.95
2022-11-24T07:31:42.756Z,56.10
2022-11-24T07:32:46.731Z,45.50
2022-11-24T07:33:49.889Z,52.60
2022-11-24T07:34:53.574Z,54.55
2022-11-24T07:36:00.046Z,104.07
2022-11-24T07:37:03.876Z,51.65
2022-11-24T07:38:07.536Z,60.90
2022-11-24T07:39:11.283Z,55.47
2022-11-24T07:40:13.987Z,53.40
2022-11-24T07:41:20.579Z,52.92
2022-11-24T07:42:24.274Z,54.20
2022-11-24T07:43:27.990Z,50.63
2022-11-24T07:44:31.786Z,54.92
2022-11-24T07:45:36.862Z,52.75
2022-11-24T07:46:40.578Z,79.30
2022-11-24T07:47:44.284Z,56.15
2022-11-24T07:48:48.308Z,137.30
2022-11-24T07:49:52.103Z,86.00
2022-11-24T07:50:56.278Z,171.70
2022-11-24T07:52:01.074Z,139.00
2022-11-24T07:53:03.881Z,240.50
2022-11-24T07:54:07.746Z,179.15
2022-11-24T07:55:10.579Z,214.00
2022-11-24T07:56:14.296Z,257.02
2022-11-24T07:57:18.470Z,234.60
2022-11-24T07:58:22.284Z,121.07
2022-11-24T07:59:26.080Z,249.57
2022-11-24T08:00:30.089Z,227.57
2022-11-24T08:01:34.125Z,291.42
2022-11-24T08:02:36.815Z,69.85
2022-11-24T08:03:40.864Z,100.75
2022-11-24T08:04:43.636Z,71.60
2022-11-24T08:06:22.167Z,83.07
2022-11-24T08:07:19.126Z,105.47
2022-11-24T08:08:21.906Z,74.32
2022-11-24T08:09:25.628Z,71.55
2022-11-24T08:10:28.307Z,77.85
2022-11-24T08:11:33.166Z,64.07
2022-11-24T08:12:37.402Z,73.25
2022-11-24T08:13:41.608Z,77.00
2022-11-24T08:14:45.306Z,58.75
2022-11-24T08:15:49.096Z,64.97
2022-11-24T08:16:51.926Z,65.80
2022-11-24T08:17:55.696Z,76.60
2022-11-24T08:18:59.469Z,112.63
2022-11-24T08:20:02.198Z,99.95
2022-11-24T08:21:06.734Z,81.15
2022-11-24T08:22:09.423Z,73.63
2022-11-24T08:23:13.169Z,86.45
2022-11-24T08:24:17.244Z,64.40
2022-11-24T08:25:20.107Z,74.47
2022-11-24T08:26:25.117Z,86.35
2022-11-24T08:27:29.137Z,82.07
2022-11-24T08:28:33.597Z,77.43
2022-11-24T08:29:37.467Z,89.72
2022-11-24T08:30:41.179Z,94.85
2022-11-24T08:31:45.076Z,97.35
2022-11-24T08:32:48.908Z,82.45
2022-11-24T08:33:51.688Z,95.47
2022-11-24T08:34:59.676Z,94.35
2022-11-24T08:36:16.445Z,71.15
2022-11-24T08:37:20.170Z,78.95
2022-11-24T08:38:25.212Z,86.93
2022-11-24T08:39:29.428Z,85.30
2022-11-24T08:40:33.307Z,88.00
2022-11-24T08:41:37.069Z,87.10
2022-11-24T08:42:40.108Z,81.45
2022-11-24T08:43:45.467Z,81.20
2022-11-24T08:44:49.198Z,81.90
2022-11-24T08:45:52.052Z,90.95
2022-11-24T08:46:56.197Z,94.38
2022-11-24T08:47:58.917Z,81.95
2022-11-24T08:49:02.708Z,75.68
2022-11-24T08:50:07.641Z,75.32
2022-11-24T08:51:12.579Z,75.32
2022-11-24T08:52:17.467Z,80.72
2022-11-24T08:53:20.128Z,70.05
2022-11-24T08:54:23.971Z,78.05
2022-11-24T08:55:26.648Z,85.25
2022-11-24T08:56:31.729Z,79.53
2022-11-24T08:57:34.578Z,80.40
2022-11-24T08:58:38.863Z,83.13
2022-11-24T08:59:44.112Z,104.60
2022-11-24T09:00:46.805Z,95.32
2022-11-24T09:01:50.681Z,105.07
2022-11-24T09:02:56.452Z,91.40
2022-11-24T09:04:00.673Z,94.75
2022-11-24T09:05:07.254Z,80.10
2022-11-24T09:06:24.037Z,84.25
2022-11-24T09:07:28.083Z,89.97
2022-11-24T09:08:32.027Z,68.45
2022-11-24T09:09:35.928Z,76.72
2022-11-24T09:10:39.647Z,102.10
2022-11-24T09:11:43.707Z,86.55
2022-11-24T09:12:48.028Z,75.82
2022-11-24T09:13:52.068Z,101.63
2022-11-24T09:14:57.277Z,91.43
2022-11-24T09:16:04.770Z,99.65
2022-11-24T09:17:08.674Z,93.10
2022-11-24T09:18:11.398Z,85.50
2022-11-24T09:19:15.093Z,109.80
2022-11-24T09:20:18.067Z,121.22
2022-11-24T09:21:23.079Z,142.85
2022-11-24T09:22:26.909Z,128.73
2022-11-24T09:23:29.717Z,92.97
2022-11-24T09:24:33.760Z,121.88
2022-11-24T09:25:37.774Z,108.80
2022-11-24T09:26:46.182Z,108.78
2022-11-24T09:27:51.927Z,90.05
2022-11-24T09:28:57.017Z,113.47
2022-11-24T09:30:01.348Z,105.70
2022-11-24T09:31:06.649Z,90.78
2022-11-24T09:32:10.665Z,89.97
2022-11-24T09:33:13.738Z,100.00
2022-11-24T09:34:17.737Z,93.45
2022-11-24T09:35:20.428Z,107.93
2022-11-24T09:36:24.876Z,108.30
2022-11-24T09:37:32.446Z,111.22
2022-11-24T09:38:36.656Z,107.00
2022-11-24T09:39:40.653Z,102.93
2022-11-24T09:40:44.650Z,109.30
2022-11-24T09:42:09.280Z,106.50
2022-11-24T09:43:16.875Z,97.97
2022-11-24T09:44:46.225Z,108.43
2022-11-24T09:46:09.110Z,102.47
2022-11-24T09:47:20.695Z,93.97
2022-11-24T09:48:27.746Z,97.75
2022-11-24T09:49:35.207Z,106.13
2022-11-24T09:50:39.855Z,94.38
2022-11-24T09:51:43.728Z,121.20
2022-11-24T09:52:51.143Z,127.55
2022-11-24T09:53:57.906Z,98.75
2022-11-24T09:55:02.961Z,110.40
2022-11-24T09:56:17.069Z,109.57
2022-11-24T09:57:20.563Z,100.18
2022-11-24T09:58:34.456Z,93.97
2022-11-24T09:59:38.276Z,102.15
2022-11-24T10:00:43.091Z,97.03
2022-11-24T10:01:49.083Z,100.97
2022-11-24T10:02:52.348Z,87.85
2022-11-24T10:03:58.605Z,109.68
2022-11-24T10:05:07.133Z,98.25
2022-11-24T10:06:20.978Z,100.80
2022-11-24T10:07:28.996Z,114.35
2022-11-24T10:08:49.646Z,93.90
2022-11-24T10:10:01.032Z,92.15
2022-11-24T10:11:07.917Z,103.18
2022-11-24T10:12:19.898Z,111.70
2022-11-24T10:13:32.066Z,94.53
2022-11-24T10:15:05.424Z,107.15
2022-11-24T10:16:13.792Z,101.25
2022-11-24T10:17:27.937Z,105.82
2022-11-24T10:18:42.124Z,103.38
2022-11-24T10:19:49.857Z,100.80
2022-11-24T10:20:59.873Z,105.80
2022-11-24T10:22:16.125Z,117.00
2022-11-24T10:23:39.819Z,125.28
2022-11-24T10:25:01.558Z,139.00
2022-11-24T10:26:06.746Z,122.15
2022-11-24T10:27:17.485Z,115.38
2022-11-24T10:28:21.229Z,136.23
2022-11-24T10:29:30.524Z,117.40
2022-11-24T10:30:34.297Z,114.20
2022-11-24T10:31:38.573Z,118.53
2022-11-24T10:32:47.267Z,121.13
2022-11-24T10:33:51.654Z,130.93
2022-11-24T10:34:56.989Z,118.80
2022-11-24T10:36:05.790Z,135.27
2022-11-24T10:37:14.754Z,135.27
2022-11-24T10:38:31.317Z,130.52
2022-11-24T10:39:38.428Z,114.72
2022-11-24T10:40:59.064Z,140.90
2022-11-24T10:42:08.557Z,112.18
2022-11-24T10:43:12.287Z,136.70
2022-11-24T10:44:16.378Z,131.70
2022-11-24T10:45:23.599Z,115.60
2022-11-24T10:46:29.551Z,108.68
2022-11-24T10:47:35.269Z,107.55
2022-11-24T10:48:43.068Z,102.00
2022-11-24T10:49:51.898Z,100.10
2022-11-24T10:50:59.138Z,108.50
2022-11-24T10:52:06.436Z,100.93
2022-11-24T10:53:17.986Z,106.07
2022-11-24T10:54:23.838Z,110.05
2022-11-24T10:55:27.708Z,113.85
2022-11-24T10:56:40.113Z,119.28
2022-11-24T10:57:44.078Z,110.63
2022-11-24T10:58:47.937Z,120.60
2022-11-24T10:59:50.637Z,116.85
2022-11-24T11:00:54.647Z,111.03
2022-11-24T11:01:57.397Z,133.10
2022-11-24T11:03:20.867Z,130.05
2022-11-24T11:04:27.468Z,171.02
2022-11-24T11:05:43.219Z,147.50
2022-11-24T11:06:46.148Z,145.68
2022-11-24T11:07:49.867Z,126.13
2022-11-24T11:09:17.735Z,141.23
2022-11-24T11:10:23.386Z,138.52
2022-11-24T11:11:28.759Z,120.95
2022-11-24T11:12:47.893Z,95.57
2022-11-24T11:14:01.619Z,80.93
2022-11-24T11:15:24.332Z,85.75
2022-11-24T11:16:34.247Z,83.20
2022-11-24T11:17:38.066Z,112.85
2022-11-24T11:18:41.798Z,104.30
2022-11-24T11:19:54.309Z,116.10
2022-11-24T11:21:02.161Z,160.80
2022-11-24T11:22:08.295Z,526.60
2022-11-24T11:23:16.934Z,261.67
2022-11-24T11:24:20.627Z,140.93
2022-11-24T11:25:25.403Z,281.17
2022-11-24T11:26:33.998Z,215.35
2022-11-24T11:27:38.277Z,110.07
2022-11-24T11:28:42.094Z,137.85
2022-11-24T11:31:22.501Z,72.75
2022-11-24T11:34:06.434Z,74.53
2022-11-24T11:35:13.988Z,66.50
2022-11-24T11:36:17.751Z,77.03
2022-11-24T11:37:22.757Z,121.65
2022-11-24T11:38:26.656Z,99.82
2022-11-24T11:39:32.233Z,83.97
2022-11-24T11:40:36.571Z,105.18
2022-11-24T11:41:43.206Z,76.13
2022-11-24T11:43:04.983Z,85.25
2022-11-24T11:44:27.709Z,78.95
2022-11-24T11:45:36.434Z,73.35
2022-11-24T11:46:39.228Z,73.35
2022-11-24T11:47:45.597Z,78.03
2022-11-24T11:48:49.682Z,73.80
2022-11-24T11:49:53.077Z,69.68
2022-11-24T11:52:39.617Z,70.18
2022-11-24T11:53:46.646Z,83.72
2022-11-24T11:55:08.548Z,78.95
2022-11-24T11:56:23.995Z,84.95
2022-11-24T11:57:33.126Z,86.70
2022-11-24T11:59:08.208Z,73.55
2022-11-24T12:00:15.948Z,66.25
2022-11-24T12:01:37.162Z,64.22
2022-11-24T12:03:06.687Z,73.15
2022-11-24T12:04:22.129Z,64.43
2022-11-24T12:05:29.058Z,59.28
2022-11-24T12:06:51.222Z,66.03
2022-11-24T12:08:10.904Z,58.05
2022-11-24T12:09:26.289Z,55.45
2022-11-24T12:10:37.960Z,58.80
2022-11-24T12:11:44.603Z,60.53
2022-11-24T12:13:00.961Z,65.97
2022-11-24T12:14:16.139Z,64.65
2022-11-24T12:15:26.854Z,65.82
2022-11-24T12:16:38.412Z,67.07
2022-11-24T12:17:46.507Z,58.88
2022-11-24T12:18:58.185Z,65.60
2022-11-24T12:20:15.873Z,62.58
2022-11-24T12:21:26.009Z,59.40
2022-11-24T12:22:37.021Z,62.72
2022-11-24T12:23:50.348Z,60.88
2022-11-24T12:24:58.615Z,60.83
2022-11-24T12:26:07.290Z,72.50
2022-11-24T12:27:22.236Z,62.20
2022-11-24T12:28:34.345Z,60.15
2022-11-24T12:30:04.799Z,63.25
2022-11-24T12:31:10.404Z,68.72
2022-11-24T12:32:27.125Z,70.93
2022-11-24T12:34:16.226Z,65.38
2022-11-24T12:35:22.876Z,67.97
2022-11-24T12:36:34.934Z,72.45
2022-11-24T12:37:55.433Z,66.60
2022-11-24T12:39:05.926Z,62.53
2022-11-24T12:40:16.122Z,75.28
2022-11-24T12:41:45.779Z,69.57
2022-11-24T12:42:56.517Z,69.25
2022-11-24T12:44:00.582Z,73.43
2022-11-24T12:45:16.127Z,83.68
2022-11-24T12:46:23.076Z,67.95
2022-11-24T12:47:33.551Z,68.03
2022-11-24T12:48:49.180Z,73.15
2022-11-24T12:50:02.158Z,65.30
2022-11-24T12:51:12.687Z,66.28
2022-11-24T12:52:21.167Z,65.97
2022-11-24T12:53:28.794Z,75.57
2022-11-24T12:54:39.489Z,82.97
2022-11-24T12:55:43.963Z,82.85
2022-11-24T12:56:52.576Z,106.60
2022-11-24T12:58:00.330Z,139.18
2022-11-24T12:59:17.139Z,96.50
2022-11-24T13:00:23.022Z,82.07
2022-11-24T13:01:32.419Z,85.03
2022-11-24T13:02:51.344Z,77.43
2022-11-24T13:04:03.186Z,84.25
2022-11-24T13:05:22.838Z,77.07
2022-11-24T13:06:29.747Z,69.68
2022-11-24T13:07:41.824Z,74.82
2022-11-24T13:08:47.211Z,77.07
2022-11-24T13:11:57.867Z,69.80
2022-11-24T13:13:09.037Z,72.38
2022-11-24T13:14:23.925Z,71.32
2022-11-24T13:15:45.281Z,82.68
2022-11-24T13:18:47.119Z,74.53
2022-11-24T13:19:51.195Z,84.38
2022-11-24T13:20:54.930Z,89.47
2022-11-24T13:22:04.992Z,77.60
2022-11-24T13:23:23.537Z,90.30
2022-11-24T13:24:31.010Z,91.13
2022-11-24T13:25:43.844Z,86.50
2022-11-24T13:26:49.938Z,98.75
2022-11-24T13:27:55.666Z,88.60
2022-11-24T13:29:09.334Z,76.10
2022-11-24T13:30:55.941Z,80.63
2022-11-24T13:32:52.889Z,71.78
2022-11-24T13:33:56.656Z,60.35
2022-11-24T13:35:04.937Z,63.40
2022-11-24T13:36:33.209Z,76.72
2022-11-24T13:37:48.982Z,67.53
2022-11-24T13:38:53.388Z,66.97
2022-11-24T13:39:59.715Z,72.55
2022-11-24T13:41:26.955Z,68.32
2022-11-24T13:42:43.972Z,78.22
2022-11-24T13:44:21.708Z,71.07
2022-11-24T13:45:50.054Z,63.10
2022-11-24T13:47:05.808Z,64.93
2022-11-24T13:48:56.291Z,68.35
2022-11-24T13:50:00.263Z,68.18
2022-11-24T13:51:16.438Z,137.57
2022-11-24T13:52:48.155Z,86.82
2022-11-24T13:53:52.507Z,73.63
2022-11-24T13:54:58.228Z,67.25
2022-11-24T13:56:05.746Z,63.83
2022-11-24T13:57:36.838Z,68.85
2022-11-24T13:58:41.406Z,64.43
2022-11-24T13:59:45.567Z,63.22
2022-11-24T14:01:03.765Z,78.72
2022-11-24T14:02:22.752Z,64.20
2022-11-24T14:03:28.164Z,64.63
2022-11-24T14:04:33.466Z,76.25
2022-11-24T14:05:39.185Z,105.80
2022-11-24T14:06:45.003Z,63.13
2022-11-24T14:07:50.119Z,61.58
2022-11-24T14:08:54.066Z,66.07
2022-11-24T14:09:59.693Z,70.75
2022-11-24T14:11:04.087Z,94.63
2022-11-24T14:12:13.855Z,109.03
2022-11-24T14:13:18.846Z,120.38
2022-11-24T14:14:22.931Z,115.70
2022-11-24T14:15:29.692Z,96.80
2022-11-24T14:16:33.517Z,86.93
2022-11-24T14:17:38.847Z,93.43
2022-11-24T14:18:44.515Z,112.93
2022-11-24T14:19:49.898Z,95.80